Time;durP1;ratioP1;P1;durP2;ratioP2;P2;SDS_P1;SDS_P2;PMS_P1;PMS_P2;Temp;Humidity;BMP_temperature;BMP_pressure;BME280_temperature;BME280_humidity;BME280_pressure;Samples;Min_cycle;Max_cycle;Signal;HPM_P1;HPM_P2
2024/01/26 00:01:55;;;;;;;95.03;53.47;;;17.90;64.30;;;;;;5031884;27;85255;-42
2024/01/26 00:04:21;;;;;;;95.65;53.45;;;17.90;64.20;;;;;;5032655;27;85188;-42
2024/01/26 00:06:47;;;;;;;95.15;53.65;;;17.90;64.20;;;;;;5034215;27;85154;-47
2024/01/26 00:09:15;;;;;;;95.25;53.63;;;17.90;64.30;;;;;;5028705;27;84745;-42
2024/01/26 00:11:42;;;;;;;95.25;53.53;;;17.90;64.40;;;;;;5030581;27;85166;-40
2024/01/26 00:14:08;;;;;;;96.43;53.47;;;17.90;64.40;;;;;;5032928;27;86142;-40
2024/01/26 00:16:35;;;;;;;95.60;53.88;;;17.90;64.30;;;;;;5036393;27;84920;-40
2024/01/26 00:19:01;;;;;;;96.63;53.60;;;17.80;64.30;;;;;;5029267;27;86636;-48
2024/01/26 00:21:27;;;;;;;94.47;53.45;;;17.80;64.30;;;;;;5030699;27;85736;-46
2024/01/26 00:23:53;;;;;;;96.80;53.17;;;17.80;64.40;;;;;;5031281;27;86211;-39
2024/01/26 00:26:18;;;;;;;95.32;53.30;;;17.80;64.40;;;;;;5043965;27;85601;-41
2024/01/26 00:28:44;;;;;;;94.72;53.47;;;17.80;64.50;;;;;;5052928;27;87156;-40
2024/01/26 00:31:19;;;;;;;94.57;53.55;;;17.80;64.50;;;;;;5049773;27;85051;-44
2024/01/26 00:33:45;;;;;;;94.53;53.22;;;17.80;64.50;;;;;;5052738;27;85141;-41
2024/01/26 00:36:13;;;;;;;94.75;53.30;;;17.70;64.60;;;;;;5048363;27;86576;-34
2024/01/26 00:38:39;;;;;;;95.10;53.35;;;17.70;64.60;;;;;;5040795;27;85465;-44
2024/01/26 00:41:05;;;;;;;96.45;53.72;;;17.70;64.60;;;;;;5037199;27;85121;-42
2024/01/26 00:43:31;;;;;;;94.72;53.33;;;17.70;64.60;;;;;;5035575;27;85835;-42
2024/01/26 00:45:57;;;;;;;94.80;53.35;;;17.70;64.70;;;;;;5036881;27;85432;-41
2024/01/26 00:48:23;;;;;;;94.03;53.22;;;17.70;64.70;;;;;;5033724;27;87426;-43
2024/01/26 00:50:54;;;;;;;94.43;53.40;;;17.70;64.80;;;;;;5034084;27;85898;-41
2024/01/26 00:53:20;;;;;;;95.13;53.70;;;17.70;64.80;;;;;;5033351;22;84592;-82
2024/01/26 00:55:46;;;;;;;95.15;53.95;;;17.70;64.80;;;;;;5007988;28;85208;-84
2024/01/26 00:58:11;;;;;;;94.18;53.50;;;17.60;64.80;;;;;;5007699;28;85570;-85
2024/01/26 01:00:38;;;;;;;94.43;53.72;;;17.60;64.90;;;;;;4991152;28;87265;-86
2024/01/26 01:03:07;;;;;;;94.38;53.25;;;17.60;64.80;;;;;;4993757;28;84858;-85
2024/01/26 01:05:32;;;;;;;94.75;53.78;;;17.60;64.90;;;;;;5005822;28;84339;-87
2024/01/26 01:07:58;;;;;;;94.75;53.75;;;17.60;64.90;;;;;;5016752;28;84689;-85
2024/01/26 01:10:24;;;;;;;95.65;53.33;;;17.60;64.90;;;;;;4988937;28;87679;-86
2024/01/26 01:12:52;;;;;;;94.80;53.35;;;17.60;65.00;;;;;;4993362;28;84375;-87
2024/01/26 01:15:18;;;;;;;94.47;53.63;;;17.60;65.10;;;;;;4993957;28;85074;-85
2024/01/26 01:17:45;;;;;;;93.93;53.38;;;17.50;65.00;;;;;;4995971;28;87910;-85
2024/01/26 01:20:11;;;;;;;94.05;53.45;;;17.50;65.90;;;;;;4995127;28;87084;-85
2024/01/26 01:22:38;;;;;;;94.45;53.42;;;17.50;65.10;;;;;;5014206;28;84854;-87
2024/01/26 01:25:05;;;;;;;93.90;53.22;;;17.50;65.20;;;;;;5010858;28;85038;-86
2024/01/26 01:27:33;;;;;;;93.93;53.50;;;17.40;65.30;;;;;;5017143;28;86720;-87
2024/01/26 01:29:59;;;;;;;93.90;53.33;;;17.40;65.30;;;;;;5021647;28;87616;-88
2024/01/26 01:32:25;;;;;;;94.15;53.40;;;17.40;65.30;;;;;;5032318;28;84681;-88
2024/01/26 01:34:52;;;;;;;94.03;52.92;;;17.40;65.30;;;;;;5004179;28;85665;-84
2024/01/26 01:37:18;;;;;;;94.75;53.65;;;17.40;65.30;;;;;;4988819;28;87783;-87
2024/01/26 01:39:43;;;;;;;94.13;53.30;;;17.40;65.40;;;;;;4989648;28;86977;-85
2024/01/26 01:42:15;;;;;;;94.05;53.58;;;17.40;65.40;;;;;;4998462;28;84836;-85
2024/01/26 01:44:45;;;;;;;93.55;53.35;;;17.40;65.50;;;;;;4995939;28;85922;-85
2024/01/26 01:47:12;;;;;;;94.30;53.25;;;17.30;65.50;;;;;;5011465;28;85524;-85
2024/01/26 01:49:39;;;;;;;93.45;53.28;;;17.30;65.50;;;;;;4991162;28;87164;-85
2024/01/26 01:52:09;;;;;;;94.35;53.83;;;17.30;65.60;;;;;;4991113;28;85929;-85
2024/01/26 01:54:39;;;;;;;93.90;53.57;;;17.30;65.60;;;;;;4992758;28;84970;-85
2024/01/26 01:57:04;;;;;;;94.30;53.50;;;17.30;65.70;;;;;;5009961;28;85452;-84
2024/01/26 01:59:31;;;;;;;93.35;53.40;;;17.30;65.70;;;;;;5009243;28;85742;-85
2024/01/26 02:01:57;;;;;;;93.60;53.38;;;17.20;65.70;;;;;;5007133;28;85740;-86
2024/01/26 02:04:22;;;;;;;93.30;53.30;;;17.20;65.70;;;;;;4994844;28;85659;-85
2024/01/26 02:07:00;;;;;;;94.07;53.38;;;17.20;65.80;;;;;;5013908;28;85176;-85
2024/01/26 02:09:26;;;;;;;93.03;53.15;;;17.20;65.80;;;;;;5004903;28;85233;-87
2024/01/26 02:11:52;;;;;;;93.80;53.08;;;17.20;65.90;;;;;;4990717;28;84786;-85
2024/01/26 02:14:19;;;;;;;93.05;52.85;;;17.20;65.80;;;;;;5008102;28;85171;-86
2024/01/26 02:17:05;;;;;;;92.97;52.95;;;17.20;65.90;;;;;;4991036;28;87647;-85
2024/01/26 02:19:32;;;;;;;93.13;53.17;;;17.20;65.90;;;;;;5002644;28;85294;-84
2024/01/26 02:21:58;;;;;;;94.35;53.10;;;17.20;65.90;;;;;;4992515;28;84625;-86
2024/01/26 02:24:24;;;;;;;93.25;53.10;;;17.20;65.80;;;;;;4989684;28;84920;-85
2024/01/26 02:26:50;;;;;;;93.28;53.15;;;17.20;65.90;;;;;;5012191;28;84946;-84
2024/01/26 02:29:16;;;;;;;93.38;53.22;;;17.20;65.90;;;;;;5008724;28;85171;-85
2024/01/26 02:31:41;;;;;;;93.80;53.38;;;17.20;65.90;;;;;;5012106;28;85502;-85
2024/01/26 02:34:07;;;;;;;93.90;53.30;;;17.20;65.90;;;;;;4993872;28;85776;-86
2024/01/26 02:36:35;;;;;;;93.10;52.78;;;17.10;65.80;;;;;;5013984;28;85773;-85
2024/01/26 02:39:00;;;;;;;92.95;53.13;;;17.10;65.90;;;;;;4991894;28;87643;-84
2024/01/26 02:41:26;;;;;;;93.13;52.88;;;17.10;66.00;;;;;;5004434;28;84768;-83
2024/01/26 02:43:51;;;;;;;93.38;53.17;;;17.10;65.90;;;;;;5009519;28;85298;-84
2024/01/26 02:46:17;;;;;;;94.45;53.17;;;17.10;65.90;;;;;;4990021;28;87460;-83
2024/01/26 02:48:43;;;;;;;93.82;52.90;;;17.10;66.00;;;;;;5010990;22;87100;-40
2024/01/26 02:51:09;;;;;;;93.38;53.08;;;17.10;66.00;;;;;;5027108;22;84684;-83
2024/01/26 02:53:39;;;;;;;93.47;53.30;;;17.10;65.90;;;;;;4998156;28;85473;-80
2024/01/26 02:56:05;;;;;;;93.50;53.03;;;17.10;66.00;;;;;;5000606;28;84980;-81
2024/01/26 02:58:31;;;;;;;93.72;53.25;;;17.10;65.90;;;;;;4984584;28;87927;-81
2024/01/26 03:00:57;;;;;;;92.50;53.28;;;17.10;66.00;;;;;;5005814;28;85259;-81
2024/01/26 03:03:23;;;;;;;94.07;53.20;;;17.10;66.00;;;;;;4999682;28;85068;-82
2024/01/26 03:05:49;;;;;;;92.93;53.05;;;17.00;66.00;;;;;;5005951;28;85337;-82
2024/01/26 03:08:15;;;;;;;92.95;52.80;;;17.00;66.00;;;;;;4996346;28;85550;-83
2024/01/26 03:10:40;;;;;;;93.50;53.22;;;17.00;66.00;;;;;;4984772;28;85265;-81
2024/01/26 03:13:06;;;;;;;93.35;53.50;;;17.00;66.00;;;;;;4999682;28;85604;-81
2024/01/26 03:15:32;;;;;;;93.15;53.42;;;17.00;66.10;;;;;;4978684;28;88147;-81
2024/01/26 03:17:57;;;;;;;93.85;53.05;;;17.00;66.10;;;;;;4984480;28;89452;-81
2024/01/26 03:20:23;;;;;;;93.90;53.13;;;17.00;66.10;;;;;;4997650;28;85095;-79
2024/01/26 03:22:49;;;;;;;92.95;53.03;;;17.00;66.10;;;;;;5000593;28;85617;-80
2024/01/26 03:25:14;;;;;;;93.93;53.47;;;17.00;66.20;;;;;;4997958;28;85655;-80
2024/01/26 03:27:40;;;;;;;93.65;52.78;;;17.00;66.30;;;;;;4997353;28;86806;-80
2024/01/26 03:30:06;;;;;;;92.68;53.17;;;17.00;66.30;;;;;;4996986;28;86448;-78
2024/01/26 03:32:32;;;;;;;92.63;52.92;;;17.00;66.30;;;;;;4997725;28;85142;-80
2024/01/26 03:34:58;;;;;;;93.40;52.97;;;17.00;66.20;;;;;;5003135;28;85654;-80
2024/01/26 03:37:24;;;;;;;93.97;52.92;;;17.00;66.40;;;;;;5002976;28;85145;-81
2024/01/26 03:39:49;;;;;;;93.30;53.05;;;17.00;66.30;;;;;;5003845;28;85066;-82
2024/01/26 03:42:15;;;;;;;93.03;53.00;;;17.00;66.40;;;;;;4993117;28;85170;-81
2024/01/26 03:44:42;;;;;;;93.53;53.25;;;17.00;66.40;;;;;;4998453;28;88403;-80
2024/01/26 03:47:09;;;;;;;92.95;52.97;;;17.00;66.40;;;;;;4992458;28;85503;-79
2024/01/26 03:49:34;;;;;;;93.35;52.92;;;17.00;66.40;;;;;;5003341;28;85054;-81
2024/01/26 03:52:00;;;;;;;93.63;52.90;;;17.00;66.40;;;;;;5001276;28;85281;-79
2024/01/26 03:54:25;;;;;;;94.47;52.90;;;17.00;66.40;;;;;;5000837;28;86451;-79
2024/01/26 03:56:51;;;;;;;93.10;53.13;;;17.00;66.50;;;;;;5001683;28;85071;-80
2024/01/26 03:59:18;;;;;;;92.25;52.67;;;17.00;66.50;;;;;;5002191;28;85089;-79
2024/01/26 04:01:44;;;;;;;93.13;52.67;;;16.90;66.50;;;;;;5000890;28;86533;-80
2024/01/26 04:04:09;;;;;;;95.15;53.30;;;17.00;66.50;;;;;;4998403;28;85779;-81
2024/01/26 04:06:42;;;;;;;92.50;52.60;;;17.00;66.60;;;;;;4998944;28;85151;-81
2024/01/26 04:09:11;;;;;;;94.85;52.67;;;17.00;66.90;;;;;;5003008;28;85222;-81
2024/01/26 04:11:37;;;;;;;93.30;53.00;;;16.90;67.10;;;;;;4988957;28;87793;-81
2024/01/26 04:14:03;;;;;;;91.93;52.55;;;16.90;67.50;;;;;;5001677;28;87240;-82
2024/01/26 04:16:29;;;;;;;94.32;53.13;;;16.90;67.70;;;;;;5007976;28;85289;-83
2024/01/26 04:18:54;;;;;;;93.03;52.90;;;16.90;67.80;;;;;;5011137;28;84428;-84
2024/01/26 04:21:20;;;;;;;92.78;52.80;;;16.90;68.00;;;;;;5005827;28;84457;-83
2024/01/26 04:23:46;;;;;;;92.75;52.92;;;16.90;68.00;;;;;;5008782;28;85685;-83
2024/01/26 04:26:12;;;;;;;93.50;53.25;;;16.90;68.10;;;;;;5009956;28;88256;-83
2024/01/26 04:28:37;;;;;;;93.00;53.08;;;16.90;68.20;;;;;;5010441;28;85483;-84
2024/01/26 04:31:06;;;;;;;94.13;52.97;;;16.90;68.20;;;;;;5005176;28;85797;-82
2024/01/26 04:33:32;;;;;;;92.93;52.88;;;16.80;68.20;;;;;;5005483;28;85750;-82
2024/01/26 04:35:58;;;;;;;92.88;53.00;;;16.90;68.20;;;;;;5007399;28;86363;-82
2024/01/26 04:38:23;;;;;;;94.68;53.15;;;16.90;68.30;;;;;;5009310;28;85474;-83
2024/01/26 04:40:49;;;;;;;92.75;53.13;;;16.90;68.30;;;;;;4995833;28;87032;-84
2024/01/26 04:43:15;;;;;;;93.57;52.97;;;16.90;68.30;;;;;;5028716;27;86532;-84
2024/01/26 04:45:40;;;;;;;93.38;52.55;;;16.90;68.30;;;;;;5031233;22;87320;-42
2024/01/26 04:48:07;;;;;;;92.75;52.35;;;16.90;68.30;;;;;;5006997;27;85365;-42
2024/01/26 04:50:33;;;;;;;93.70;52.40;;;16.80;68.30;;;;;;5011476;27;84972;-43
2024/01/26 04:52:58;;;;;;;94.18;52.72;;;16.80;68.40;;;;;;4999537;27;85453;-43
2024/01/26 04:55:30;;;;;;;93.47;52.72;;;16.80;68.30;;;;;;4996923;28;85852;-43
2024/01/26 04:57:56;;;;;;;93.82;52.35;;;16.80;68.40;;;;;;4995538;28;86012;-44
2024/01/26 05:00:22;;;;;;;92.95;52.45;;;16.80;68.50;;;;;;4990019;28;85461;-43
2024/01/26 05:02:48;;;;;;;92.35;52.22;;;16.80;68.40;;;;;;4986300;28;84956;-44
2024/01/26 05:05:14;;;;;;;92.63;52.65;;;16.80;68.50;;;;;;4998387;28;85399;-44
2024/01/26 05:07:40;;;;;;;92.43;52.30;;;16.70;68.40;;;;;;4999834;28;85107;-47
2024/01/26 05:10:07;;;;;;;91.40;51.95;;;16.80;68.50;;;;;;4989888;28;85127;-46
2024/01/26 05:12:33;;;;;;;94.72;52.35;;;16.70;68.40;;;;;;4978130;28;85694;-40
2024/01/26 05:14:58;;;;;;;91.65;52.03;;;16.80;69.30;;;;;;4967998;28;86959;-41
2024/01/26 05:17:24;;;;;;;91.72;52.28;;;16.70;68.50;;;;;;4994680;28;85141;-43
2024/01/26 05:19:50;;;;;;;92.28;52.22;;;16.70;68.50;;;;;;5003872;28;85892;-42
2024/01/26 05:22:15;;;;;;;91.88;52.33;;;16.70;68.50;;;;;;4990860;28;84961;-43
2024/01/26 05:24:41;;;;;;;92.22;52.08;;;16.70;68.50;;;;;;4992728;28;85643;-44
2024/01/26 05:27:07;;;;;;;96.13;52.53;;;16.70;68.60;;;;;;4992568;28;86612;-46
2024/01/26 05:29:33;;;;;;;93.43;52.45;;;16.70;68.60;;;;;;4998139;28;85114;-42
2024/01/26 05:31:59;;;;;;;93.00;53.53;;;16.70;68.60;;;;;;5010731;22;87328;-78
2024/01/26 05:34:25;;;;;;;93.90;53.17;;;16.70;68.60;;;;;;4994661;28;88189;-84
2024/01/26 05:36:51;;;;;;;91.93;52.65;;;16.70;68.70;;;;;;5010020;28;84830;-83
2024/01/26 05:39:17;;;;;;;92.70;52.83;;;16.70;68.60;;;;;;5005804;28;85208;-84
2024/01/26 05:41:43;;;;;;;91.95;52.85;;;16.70;68.60;;;;;;4989233;28;88053;-85
2024/01/26 05:44:08;;;;;;;92.25;52.83;;;16.70;68.70;;;;;;5001470;28;85207;-84
2024/01/26 05:46:34;;;;;;;92.60;53.15;;;16.70;68.60;;;;;;5007486;28;84778;-85
2024/01/26 05:49:00;;;;;;;91.85;52.85;;;16.60;68.60;;;;;;4984252;28;87784;-83
2024/01/26 05:51:26;;;;;;;92.65;52.92;;;16.60;68.60;;;;;;4992074;28;88022;-84
2024/01/26 05:53:52;;;;;;;92.88;53.20;;;16.60;68.60;;;;;;4983603;28;86789;-83
2024/01/26 05:56:18;;;;;;;92.93;52.95;;;16.60;68.60;;;;;;5003955;28;85451;-83
2024/01/26 05:58:44;;;;;;;92.53;52.75;;;16.60;68.60;;;;;;5005398;28;84690;-83
2024/01/26 06:01:10;;;;;;;93.70;53.03;;;16.60;68.60;;;;;;4986649;28;88364;-83
2024/01/26 06:03:36;;;;;;;92.82;52.80;;;16.60;68.70;;;;;;4990030;28;87882;-84
2024/01/26 06:06:03;;;;;;;92.00;52.72;;;16.60;68.70;;;;;;4990278;28;84909;-85
2024/01/26 06:08:29;;;;;;;91.95;52.63;;;16.70;68.70;;;;;;4999101;28;86088;-85
2024/01/26 06:10:58;;;;;;;93.18;52.63;;;16.70;68.60;;;;;;4989272;28;88951;-83
2024/01/26 06:13:24;;;;;;;92.63;53.20;;;16.60;68.70;;;;;;4987493;28;91791;-83
2024/01/26 06:15:50;;;;;;;92.85;53.03;;;16.60;68.70;;;;;;5006917;28;84849;-82
2024/01/26 06:18:16;;;;;;;92.22;53.25;;;16.60;68.80;;;;;;4983215;28;87655;-82
2024/01/26 06:20:42;;;;;;;92.53;52.97;;;16.60;69.00;;;;;;5002680;28;84575;-84
2024/01/26 06:23:08;;;;;;;93.90;53.35;;;16.60;69.20;;;;;;4981289;28;87726;-84
2024/01/26 06:25:33;;;;;;;93.22;52.78;;;16.50;69.40;;;;;;4989838;28;84906;-84
2024/01/26 06:27:59;;;;;;;95.05;52.95;;;16.60;69.70;;;;;;4985591;28;86502;-82
2024/01/26 06:30:25;;;;;;;92.13;53.13;;;16.60;69.70;;;;;;4987308;28;89636;-84
2024/01/26 06:32:51;;;;;;;95.15;52.95;;;16.60;69.70;;;;;;4993439;28;87618;-82
2024/01/26 06:35:17;;;;;;;92.72;53.17;;;16.60;69.40;;;;;;4988695;28;84616;-85
2024/01/26 06:37:43;;;;;;;92.80;53.00;;;16.50;69.30;;;;;;4991925;28;87082;-83
2024/01/26 06:40:10;;;;;;;94.18;53.38;;;16.50;69.40;;;;;;4988161;28;89169;-82
2024/01/26 06:42:40;;;;;;;94.13;53.03;;;16.50;69.30;;;;;;4990526;28;88933;-84
2024/01/26 06:45:10;;;;;;;100.65;53.50;;;16.50;69.30;;;;;;4989194;28;86003;-84
2024/01/26 06:47:36;;;;;;;97.28;53.88;;;16.40;69.60;;;;;;5009625;28;85474;-82
2024/01/26 06:50:03;;;;;;;98.00;54.20;;;16.50;69.80;;;;;;5004937;28;85271;-82
2024/01/26 06:52:29;;;;;;;97.38;53.70;;;16.60;70.30;;;;;;5008744;28;84929;-83
2024/01/26 06:54:54;;;;;;;94.97;54.10;;;16.60;70.60;;;;;;5006738;28;85484;-83
2024/01/26 06:57:20;;;;;;;99.30;54.78;;;16.50;70.80;;;;;;4991372;28;88844;-83
2024/01/26 06:59:45;;;;;;;94.90;53.75;;;16.50;70.90;;;;;;4986678;28;88707;-81
2024/01/26 07:02:11;;;;;;;95.57;53.75;;;16.50;70.90;;;;;;5004044;28;86324;-83
2024/01/26 07:04:37;;;;;;;95.90;53.63;;;16.50;70.70;;;;;;4986051;28;84713;-81
2024/01/26 07:07:03;;;;;;;95.60;53.75;;;16.60;70.70;;;;;;4986984;28;87741;-83
2024/01/26 07:09:28;;;;;;;95.65;53.92;;;16.60;70.50;;;;;;4989256;28;87994;-81
2024/01/26 07:11:54;;;;;;;95.35;53.60;;;16.60;70.50;;;;;;4988494;28;88562;-82
2024/01/26 07:14:20;;;;;;;97.63;54.00;;;16.60;70.40;;;;;;4989333;28;84916;-82
2024/01/26 07:16:46;;;;;;;95.53;53.85;;;16.50;70.40;;;;;;4985112;28;87934;-82
2024/01/26 07:19:12;;;;;;;95.80;53.97;;;16.50;70.60;;;;;;5003920;28;86110;-85
2024/01/26 07:21:37;;;;;;;95.32;53.80;;;16.60;70.40;;;;;;4985148;28;88935;-82
2024/01/26 07:24:03;;;;;;;96.38;53.95;;;16.50;70.30;;;;;;4986964;28;84745;-82
2024/01/26 07:26:29;;;;;;;94.63;53.55;;;16.50;70.50;;;;;;5004062;28;86482;-83
2024/01/26 07:28:55;;;;;;;96.20;53.75;;;16.50;70.40;;;;;;4982742;28;88426;-84
2024/01/26 07:31:20;;;;;;;95.80;53.53;;;16.50;70.60;;;;;;5007708;28;86345;-85
2024/01/26 07:33:46;;;;;;;95.80;54.00;;;16.50;70.40;;;;;;4987668;28;84888;-85
2024/01/26 07:36:12;;;;;;;96.40;53.75;;;16.60;70.40;;;;;;5009286;28;85007;-83
2024/01/26 07:38:37;;;;;;;96.45;54.10;;;16.70;70.20;;;;;;4986290;28;87493;-84
2024/01/26 07:41:03;;;;;;;95.78;53.42;;;16.70;69.90;;;;;;5008947;28;85303;-86
2024/01/26 07:43:29;;;;;;;95.22;53.03;;;16.80;69.80;;;;;;5004218;28;85330;-82
2024/01/26 07:45:54;;;;;;;94.72;53.63;;;16.80;69.50;;;;;;5003703;28;85439;-84
2024/01/26 07:48:20;;;;;;;96.90;54.05;;;16.80;69.40;;;;;;5011517;28;85323;-84
2024/01/26 07:50:46;;;;;;;93.95;53.20;;;16.80;69.40;;;;;;5010757;28;84813;-82
2024/01/26 07:53:12;;;;;;;96.07;53.47;;;16.80;69.30;;;;;;5012359;28;84637;-84
2024/01/26 07:55:37;;;;;;;95.65;53.90;;;16.80;69.30;;;;;;5007952;28;85532;-83
2024/01/26 07:58:04;;;;;;;94.20;53.88;;;16.80;69.20;;;;;;4994140;28;88007;-83
2024/01/26 08:00:29;;;;;;;95.10;53.95;;;16.80;69.40;;;;;;4994089;28;87355;-83
2024/01/26 08:02:55;;;;;;;96.32;53.65;;;16.80;69.20;;;;;;5011319;28;84433;-84
2024/01/26 08:05:21;;;;;;;95.97;53.63;;;16.80;69.10;;;;;;4986876;28;86957;-83
2024/01/26 08:07:47;;;;;;;93.97;53.50;;;16.80;69.30;;;;;;5006196;28;86589;-83
2024/01/26 08:10:12;;;;;;;96.05;53.30;;;16.80;69.20;;;;;;5013034;28;85136;-84
2024/01/26 08:12:40;;;;;;;95.32;53.58;;;16.80;69.20;;;;;;4995717;28;84450;-83
2024/01/26 08:15:06;;;;;;;95.47;53.80;;;16.80;69.30;;;;;;4991892;28;87497;-82
2024/01/26 08:17:33;;;;;;;95.00;53.67;;;16.80;69.40;;;;;;5010873;28;85536;-82
2024/01/26 08:19:59;;;;;;;93.40;53.08;;;16.70;69.50;;;;;;4990287;28;86973;-82
2024/01/26 08:22:25;;;;;;;94.85;53.45;;;16.70;69.60;;;;;;5007870;28;85400;-82
2024/01/26 08:24:51;;;;;;;96.72;53.85;;;16.80;69.80;;;;;;4988870;28;86676;-86
2024/01/26 08:27:17;;;;;;;96.25;53.70;;;16.90;69.80;;;;;;5009542;28;85736;-86
2024/01/26 08:29:43;;;;;;;95.78;53.65;;;16.80;71.70;;;;;;5005757;28;85359;-87
2024/01/26 08:32:09;;;;;;;97.65;54.03;;;16.70;72.90;;;;;;4994620;28;84568;-87
2024/01/26 08:34:38;;;;;;;96.47;53.70;;;16.70;73.60;;;;;;4994968;28;88430;-88
2024/01/26 08:37:04;;;;;;;97.00;53.47;;;16.70;73.90;;;;;;4993679;28;88301;-87
2024/01/26 08:39:29;;;;;;;98.05;53.47;;;16.70;73.90;;;;;;5011127;28;84567;-85
2024/01/26 08:41:56;;;;;;;95.07;53.47;;;16.70;73.90;;;;;;5010961;28;84502;-82
2024/01/26 08:44:22;;;;;;;96.82;53.78;;;16.70;73.80;;;;;;5010255;28;85599;-87
2024/01/26 08:46:48;;;;;;;99.60;53.50;;;16.70;73.60;;;;;;4986259;28;87898;-84
2024/01/26 08:49:14;;;;;;;99.32;53.72;;;16.70;73.30;;;;;;5013695;28;85043;-87
2024/01/26 08:51:40;;;;;;;96.63;53.85;;;16.50;72.10;;;;;;4994098;28;85071;-84
2024/01/26 08:54:07;;;;;;;95.47;53.33;;;16.50;71.00;;;;;;5003567;28;85887;-89
2024/01/26 08:56:33;;;;;;;97.70;53.47;;;16.40;71.70;;;;;;5004549;28;87994;-86
2024/01/26 08:58:59;;;;;;;97.80;53.47;;;16.50;71.00;;;;;;5013307;28;86350;-90
2024/01/26 09:01:25;;;;;;;101.60;53.67;;;16.50;71.10;;;;;;5016829;28;84733;-87
2024/01/26 09:03:51;;;;;;;97.20;53.08;;;16.40;70.30;;;;;;5011472;28;85259;-88
2024/01/26 09:08:44;;;;;;;96.10;52.65;;;16.40;68.10;;;;;;4984849;28;89952;-47
2024/01/26 09:11:10;;;;;;;97.95;52.33;;;16.30;68.10;;;;;;4993238;28;86056;-44
2024/01/26 09:13:36;;;;;;;95.82;52.42;;;16.30;67.20;;;;;;4995259;28;85833;-43
2024/01/26 09:16:02;;;;;;;95.10;52.95;;;16.20;67.60;;;;;;4989845;28;85944;-41
2024/01/26 09:18:27;;;;;;;98.53;52.53;;;16.00;66.80;;;;;;4971252;28;85284;-45
2024/01/26 09:20:53;;;;;;;98.78;53.08;;;16.10;66.60;;;;;;4989360;28;86610;-44
2024/01/26 09:23:19;;;;;;;94.45;52.20;;;16.20;66.00;;;;;;4990903;28;85878;-44
2024/01/26 09:25:45;;;;;;;97.03;52.78;;;16.20;66.20;;;;;;4989180;28;85136;-41
2024/01/26 09:28:11;;;;;;;96.13;52.45;;;16.10;65.30;;;;;;5009807;22;85835;-70
2024/01/26 09:30:37;;;;;;;93.38;52.30;;;16.10;65.50;;;;;;5031889;27;85191;-75
2024/01/26 09:33:03;;;;;;;99.47;52.83;;;16.10;64.90;;;;;;5034372;27;85049;-77
2024/01/26 09:35:29;;;;;;;98.50;52.42;;;16.10;63.40;;;;;;5018951;27;87889;-75
2024/01/26 09:37:55;;;;;;;96.07;52.33;;;16.10;63.40;;;;;;5032451;27;85248;-75
2024/01/26 09:40:23;;;;;;;96.30;52.42;;;16.00;62.00;;;;;;5023716;27;85348;-76
2024/01/26 09:42:49;;;;;;;95.07;52.70;;;15.90;61.90;;;;;;5012620;27;85991;-77
2024/01/26 09:45:15;;;;;;;100.22;52.97;;;15.90;62.40;;;;;;5015527;27;85014;-76
2024/01/26 09:47:41;;;;;;;97.68;52.47;;;15.90;62.80;;;;;;5017812;27;92293;-77
2024/01/26 09:50:10;;;;;;;97.03;52.83;;;15.90;62.60;;;;;;5021936;27;85892;-79
2024/01/26 09:52:37;;;;;;;95.95;52.72;;;16.00;62.80;;;;;;5010499;27;85798;-73
2024/01/26 09:55:05;;;;;;;97.75;52.63;;;15.90;63.20;;;;;;5035990;27;86781;-73
2024/01/26 09:57:32;;;;;;;100.22;53.10;;;15.90;63.10;;;;;;5028878;27;87489;-74
2024/01/26 09:59:58;;;;;;;100.00;52.85;;;16.10;64.00;;;;;;5029630;27;85660;-78
2024/01/26 10:02:25;;;;;;;101.50;53.15;;;16.00;64.20;;;;;;5036164;27;85244;-72
2024/01/26 10:04:51;;;;;;;100.90;53.63;;;16.20;67.90;;;;;;5023103;27;86829;-71
2024/01/26 10:07:16;;;;;;;102.65;53.35;;;16.30;67.40;;;;;;5025189;27;85971;-71
2024/01/26 10:09:42;;;;;;;99.75;53.35;;;16.40;67.60;;;;;;5025479;27;86392;-72
2024/01/26 10:12:09;;;;;;;103.25;53.35;;;16.40;67.60;;;;;;5030997;27;85217;-73
2024/01/26 10:14:35;;;;;;;104.15;52.65;;;16.50;67.80;;;;;;5025243;27;89588;-73
2024/01/26 10:17:00;;;;;;;103.43;53.00;;;16.50;67.60;;;;;;5024695;27;86042;-70
2024/01/26 10:19:27;;;;;;;100.97;52.85;;;16.60;67.50;;;;;;5018304;27;88582;-69
2024/01/26 10:21:54;;;;;;;101.38;53.05;;;16.70;67.40;;;;;;5030592;27;84986;-71
2024/01/26 10:24:24;;;;;;;98.75;53.35;;;16.60;67.20;;;;;;5033836;27;86328;-73
2024/01/26 10:26:53;;;;;;;99.70;52.90;;;16.60;67.20;;;;;;5031689;27;85380;-69
2024/01/26 10:29:20;;;;;;;98.80;52.97;;;16.60;67.30;;;;;;5028045;27;85712;-69
2024/01/26 10:31:47;;;;;;;100.22;52.92;;;16.70;67.40;;;;;;4996484;28;86034;-67
2024/01/26 10:34:15;;;;;;;98.47;52.88;;;16.70;67.50;;;;;;5012707;27;86081;-71
2024/01/26 10:36:45;;;;;;;100.13;52.65;;;16.80;67.60;;;;;;5013182;27;85566;-65
2024/01/26 10:39:31;;;;;;;99.82;53.00;;;16.80;67.60;;;;;;5018761;27;84941;-69
2024/01/26 10:42:05;;;;;;;102.38;53.45;;;16.90;67.70;;;;;;5001471;27;85615;-69
2024/01/26 10:44:34;;;;;;;107.45;53.50;;;16.90;67.60;;;;;;4997484;27;86297;-67
2024/01/26 10:47:04;;;;;;;99.38;52.97;;;16.90;67.30;;;;;;5000702;27;85310;-71
2024/01/26 10:49:31;;;;;;;100.63;53.58;;;16.90;67.40;;;;;;5002582;27;86927;-76
2024/01/26 10:52:00;;;;;;;105.72;53.97;;;16.90;67.50;;;;;;4994850;27;86223;-70
2024/01/26 10:54:27;;;;;;;101.35;53.45;;;17.00;67.20;;;;;;5012038;27;86946;-69
2024/01/26 10:56:53;;;;;;;99.68;53.30;;;16.90;66.80;;;;;;5012781;27;86135;-69
2024/01/26 10:59:20;;;;;;;100.72;53.42;;;16.90;66.40;;;;;;5010731;27;84888;-71
2024/01/26 11:01:47;;;;;;;106.28;53.60;;;16.90;66.30;;;;;;5019670;27;85336;-74
2024/01/26 11:04:13;;;;;;;100.47;53.45;;;16.90;66.20;;;;;;5012587;27;86899;-68
2024/01/26 11:06:42;;;;;;;95.13;52.92;;;17.00;66.10;;;;;;4995070;28;85996;-69
2024/01/26 11:09:10;;;;;;;99.05;53.30;;;17.00;65.80;;;;;;5000992;27;85529;-71
2024/01/26 11:11:40;;;;;;;96.60;52.78;;;17.00;65.90;;;;;;5008629;27;88729;-71
2024/01/26 11:14:05;;;;;;;96.75;52.67;;;17.10;65.60;;;;;;4992295;28;85537;-72
2024/01/26 11:16:40;;;;;;;99.57;53.33;;;17.10;65.40;;;;;;5011787;27;85217;-69
2024/01/26 11:19:05;;;;;;;99.90;52.83;;;17.00;65.50;;;;;;5013926;27;85460;-68
2024/01/26 11:21:46;;;;;;;102.72;53.08;;;17.00;65.80;;;;;;5009875;27;85450;-73
2024/01/26 11:24:17;;;;;;;103.70;53.87;;;17.10;65.70;;;;;;5040567;22;86680;-69
2024/01/26 11:26:59;;;;;;;99.88;53.22;;;17.00;65.60;;;;;;4985033;28;88683;-66
2024/01/26 11:29:36;;;;;;;98.57;52.92;;;17.10;65.80;;;;;;4999726;28;85160;-67
2024/01/26 11:32:15;;;;;;;97.03;53.15;;;17.10;65.90;;;;;;4994290;28;88207;-68
2024/01/26 11:34:41;;;;;;;100.55;52.85;;;17.10;65.80;;;;;;4994241;28;86130;-68
2024/01/26 11:37:13;;;;;;;99.43;53.17;;;17.20;65.60;;;;;;4998106;28;85473;-67
2024/01/26 11:39:40;;;;;;;96.72;52.70;;;17.20;65.60;;;;;;4997209;28;85322;-66
2024/01/26 11:42:11;;;;;;;97.28;52.70;;;17.30;65.60;;;;;;4998369;28;86591;-72
2024/01/26 11:44:49;;;;;;;102.07;53.20;;;17.20;65.30;;;;;;4976523;28;88031;-67
2024/01/26 11:47:15;;;;;;;100.82;53.25;;;17.40;65.10;;;;;;4993515;28;85106;-73
2024/01/26 11:49:41;;;;;;;99.10;52.92;;;17.40;65.30;;;;;;5001529;28;85633;-70
2024/01/26 11:52:07;;;;;;;97.43;52.78;;;17.50;64.30;;;;;;4994731;28;86112;-67
2024/01/26 11:54:32;;;;;;;95.65;52.88;;;17.40;64.00;;;;;;4996632;28;85871;-66
2024/01/26 11:57:04;;;;;;;96.15;52.85;;;17.30;63.90;;;;;;4996231;28;85412;-68
2024/01/26 11:59:30;;;;;;;96.10;52.92;;;17.20;63.40;;;;;;4998797;28;85536;-69
2024/01/26 12:01:56;;;;;;;97.30;53.03;;;17.20;63.00;;;;;;4997450;28;85682;-70
2024/01/26 12:04:23;;;;;;;95.80;52.47;;;17.20;62.40;;;;;;4998186;28;87173;-72
2024/01/26 12:06:48;;;;;;;96.25;52.30;;;17.10;62.30;;;;;;4996593;28;86036;-70
2024/01/26 12:09:14;;;;;;;95.05;52.15;;;17.10;62.00;;;;;;4981006;28;84983;-65
2024/01/26 12:11:40;;;;;;;108.50;52.60;;;17.10;62.50;;;;;;4999998;28;85180;-75
2024/01/26 12:14:06;;;;;;;97.97;52.53;;;17.20;64.70;;;;;;5002151;28;85052;-74
2024/01/26 12:16:32;;;;;;;97.55;52.75;;;17.10;65.50;;;;;;4996738;28;85569;-76
2024/01/26 12:18:59;;;;;;;96.60;52.63;;;17.10;66.10;;;;;;5002134;28;84695;-77
2024/01/26 12:21:30;;;;;;;98.00;52.70;;;17.20;67.20;;;;;;4993392;28;85881;-74
2024/01/26 12:23:55;;;;;;;95.85;52.40;;;17.20;67.90;;;;;;4995464;28;85725;-75
2024/01/26 12:26:21;;;;;;;97.43;52.03;;;17.20;68.30;;;;;;4975079;28;84846;-79